sensor_id;sensor_type;location;lat;lon;timestamp;pressure;altitude;pressure_sealevel;temperature;humidity
60715;BME280;46564;53.096;8.246;2023-01-30T00:04:16;101105.56;;;3.03;94.65
60715;BME280;46564;53.096;8.246;2023-01-30T00:09:19;101073.97;;;3.08;94.24
60715;BME280;46564;53.096;8.246;2023-01-30T00:14:21;101074.38;;;3.16;94.65
60715;BME280;46564;53.096;8.246;2023-01-30T00:19:22;101059.31;;;3.25;94.92
60715;BME280;46564;53.096;8.246;2023-01-30T00:24:24;101027.75;;;3.32;95.29
60715;BME280;46564;53.096;8.246;2023-01-30T00:29:25;101016.75;;;3.36;95.23
60715;BME280;46564;53.096;8.246;2023-01-30T00:34:29;100991.81;;;3.39;95.44
60715;BME280;46564;53.096;8.246;2023-01-30T00:39:31;100987.84;;;3.45;95.14
60715;BME280;46564;53.096;8.246;2023-01-30T00:44:35;100981.91;;;3.48;95.53
60715;BME280;46564;53.096;8.246;2023-01-30T00:49:55;100950.91;;;3.49;95.52
60715;BME280;46564;53.096;8.246;2023-01-30T00:54:57;100954.56;;;3.53;95.48
60715;BME280;46564;53.096;8.246;2023-01-30T00:59:58;100937.66;;;3.61;95.65
60715;BME280;46564;53.096;8.246;2023-01-30T01:05:00;100932.78;;;3.67;95.44
60715;BME280;46564;53.096;8.246;2023-01-30T01:10:02;100898.59;;;3.75;95.55
60715;BME280;46564;53.096;8.246;2023-01-30T01:15:04;100894.56;;;3.81;95.56
60715;BME280;46564;53.096;8.246;2023-01-30T01:20:06;100902.56;;;3.86;95.70
60715;BME280;46564;53.096;8.246;2023-01-30T01:25:09;100869.03;;;3.89;95.61
60715;BME280;46564;53.096;8.246;2023-01-30T01:30:13;100866.84;;;3.98;95.59
60715;BME280;46564;53.096;8.246;2023-01-30T01:35:16;100854.09;;;4.03;95.69
60715;BME280;46564;53.096;8.246;2023-01-30T01:40:21;100852.66;;;4.10;95.69
60715;BME280;46564;53.096;8.246;2023-01-30T01:45:42;100848.44;;;4.12;95.75
60715;BME280;46564;53.096;8.246;2023-01-30T01:51:34;100850.13;;;4.11;95.76
60715;BME280;46564;53.096;8.246;2023-01-30T01:56:40;100846.59;;;4.09;96.05
60715;BME280;46564;53.096;8.246;2023-01-30T02:01:44;100826.72;;;4.10;96.21
60715;BME280;46564;53.096;8.246;2023-01-30T02:06:47;100819.88;;;4.10;96.48
60715;BME280;46564;53.096;8.246;2023-01-30T02:11:53;100814.63;;;4.09;96.70
60715;BME280;46564;53.096;8.246;2023-01-30T02:16:56;100814.75;;;4.12;96.91
60715;BME280;46564;53.096;8.246;2023-01-30T02:27:45;100775.81;;;4.10;97.43
60715;BME280;46564;53.096;8.246;2023-01-30T02:33:06;100761.13;;;4.11;97.51
60715;BME280;46564;53.096;8.246;2023-01-30T02:43:45;100745.22;;;4.22;97.99
60715;BME280;46564;53.096;8.246;2023-01-30T02:53:59;100741.34;;;4.34;98.31
60715;BME280;46564;53.096;8.246;2023-01-30T02:59:03;100732.16;;;4.40;98.44
60715;BME280;46564;53.096;8.246;2023-01-30T03:20:18;100713.03;;;4.59;98.84
60715;BME280;46564;53.096;8.246;2023-01-30T03:25:22;100720.16;;;4.65;99.05
60715;BME280;46564;53.096;8.246;2023-01-30T03:30:26;100718.59;;;4.69;99.29
60715;BME280;46564;53.096;8.246;2023-01-30T03:35:37;100710.22;;;4.76;99.28
60715;BME280;46564;53.096;8.246;2023-01-30T03:40:39;100707.94;;;4.84;99.34
60715;BME280;46564;53.096;8.246;2023-01-30T03:45:41;100710.81;;;4.91;99.68
60715;BME280;46564;53.096;8.246;2023-01-30T03:50:50;100712.78;;;4.97;99.49
60715;BME280;46564;53.096;8.246;2023-01-30T03:55:54;100705.34;;;5.06;99.69
60715;BME280;46564;53.096;8.246;2023-01-30T04:01:00;100704.81;;;5.15;99.56
60715;BME280;46564;53.096;8.246;2023-01-30T04:06:02;100706.03;;;5.25;99.78
60715;BME280;46564;53.096;8.246;2023-01-30T04:11:06;100714.16;;;5.34;99.87
60715;BME280;46564;53.096;8.246;2023-01-30T04:16:24;100703.06;;;5.38;99.80
60715;BME280;46564;53.096;8.246;2023-01-30T04:22:15;100708.34;;;5.41;99.91
60715;BME280;46564;53.096;8.246;2023-01-30T04:27:17;100706.69;;;5.43;99.51
60715;BME280;46564;53.096;8.246;2023-01-30T04:32:41;100716.09;;;5.40;99.24
60715;BME280;46564;53.096;8.246;2023-01-30T04:37:44;100710.50;;;5.29;98.96
60715;BME280;46564;53.096;8.246;2023-01-30T04:42:59;100723.97;;;5.19;98.90
60715;BME280;46564;53.096;8.246;2023-01-30T04:48:15;100715.13;;;5.13;98.68
60715;BME280;46564;53.096;8.246;2023-01-30T04:53:24;100724.38;;;5.07;98.31
60715;BME280;46564;53.096;8.246;2023-01-30T04:58:31;100729.50;;;5.05;97.89
60715;BME280;46564;53.096;8.246;2023-01-30T05:03:39;100731.75;;;4.96;97.72
60715;BME280;46564;53.096;8.246;2023-01-30T05:08:54;100727.25;;;4.92;97.53
60715;BME280;46564;53.096;8.246;2023-01-30T05:13:58;100734.22;;;4.93;96.94
60715;BME280;46564;53.096;8.246;2023-01-30T05:19:02;100741.97;;;4.91;96.32
60715;BME280;46564;53.096;8.246;2023-01-30T05:24:05;100724.50;;;4.87;96.31
60715;BME280;46564;53.096;8.246;2023-01-30T05:29:08;100740.81;;;4.85;95.94
60715;BME280;46564;53.096;8.246;2023-01-30T05:34:14;100733.81;;;4.82;95.72
60715;BME280;46564;53.096;8.246;2023-01-30T05:39:15;100742.25;;;4.76;95.37
60715;BME280;46564;53.096;8.246;2023-01-30T05:44:17;100742.00;;;4.70;94.92
60715;BME280;46564;53.096;8.246;2023-01-30T05:49:19;100740.22;;;4.69;94.72
60715;BME280;46564;53.096;8.246;2023-01-30T05:54:21;100748.75;;;4.67;94.32
60715;BME280;46564;53.096;8.246;2023-01-30T05:59:23;100755.53;;;4.63;94.02
60715;BME280;46564;53.096;8.246;2023-01-30T06:04:24;100746.09;;;4.65;93.67
60715;BME280;46564;53.096;8.246;2023-01-30T06:09:26;100768.50;;;4.63;93.22
60715;BME280;46564;53.096;8.246;2023-01-30T06:14:31;100757.06;;;4.58;92.67
60715;BME280;46564;53.096;8.246;2023-01-30T06:19:33;100744.66;;;4.51;92.43
60715;BME280;46564;53.096;8.246;2023-01-30T06:24:34;100747.81;;;4.43;92.36
60715;BME280;46564;53.096;8.246;2023-01-30T06:29:36;100756.97;;;4.35;91.87
60715;BME280;46564;53.096;8.246;2023-01-30T06:34:37;100749.72;;;4.27;91.72
60715;BME280;46564;53.096;8.246;2023-01-30T06:39:39;100729.69;;;4.22;91.41
60715;BME280;46564;53.096;8.246;2023-01-30T06:44:41;100736.16;;;4.13;91.06
60715;BME280;46564;53.096;8.246;2023-01-30T06:49:43;100753.50;;;4.14;91.17
60715;BME280;46564;53.096;8.246;2023-01-30T06:54:45;100750.09;;;4.15;90.44
60715;BME280;46564;53.096;8.246;2023-01-30T06:59:46;100758.41;;;4.07;90.44
60715;BME280;46564;53.096;8.246;2023-01-30T07:04:48;100755.09;;;4.10;90.04
60715;BME280;46564;53.096;8.246;2023-01-30T07:09:50;100758.69;;;4.14;90.10
60715;BME280;46564;53.096;8.246;2023-01-30T07:15:08;100760.59;;;4.18;90.05
60715;BME280;46564;53.096;8.246;2023-01-30T07:20:10;100754.72;;;4.22;89.92
60715;BME280;46564;53.096;8.246;2023-01-30T07:25:12;100754.25;;;4.32;90.22
60715;BME280;46564;53.096;8.246;2023-01-30T07:30:14;100755.59;;;4.43;89.71
60715;BME280;46564;53.096;8.246;2023-01-30T07:35:16;100759.31;;;4.50;89.40
60715;BME280;46564;53.096;8.246;2023-01-30T07:40:19;100763.56;;;4.48;89.37
60715;BME280;46564;53.096;8.246;2023-01-30T07:45:22;100767.03;;;4.49;89.30
60715;BME280;46564;53.096;8.246;2023-01-30T07:50:23;100770.34;;;4.45;89.11
60715;BME280;46564;53.096;8.246;2023-01-30T07:55:26;100774.75;;;4.47;89.01
60715;BME280;46564;53.096;8.246;2023-01-30T08:00:27;100768.31;;;4.58;88.77
60715;BME280;46564;53.096;8.246;2023-01-30T08:05:29;100775.22;;;4.58;88.91
60715;BME280;46564;53.096;8.246;2023-01-30T08:10:34;100772.75;;;4.61;88.63
60715;BME280;46564;53.096;8.246;2023-01-30T08:15:37;100778.88;;;4.63;88.16
60715;BME280;46564;53.096;8.246;2023-01-30T08:20:39;100769.44;;;4.65;88.20
60715;BME280;46564;53.096;8.246;2023-01-30T08:25:43;100770.53;;;4.70;87.78
60715;BME280;46564;53.096;8.246;2023-01-30T08:30:44;100768.06;;;4.73;87.82
60715;BME280;46564;53.096;8.246;2023-01-30T08:35:46;100768.06;;;4.73;87.54
60715;BME280;46564;53.096;8.246;2023-01-30T08:40:48;100767.31;;;4.76;87.70
60715;BME280;46564;53.096;8.246;2023-01-30T08:45:52;100773.50;;;4.80;87.39
60715;BME280;46564;53.096;8.246;2023-01-30T08:50:55;100764.97;;;4.82;87.38
60715;BME280;46564;53.096;8.246;2023-01-30T08:55:57;100762.13;;;4.76;87.38
60715;BME280;46564;53.096;8.246;2023-01-30T09:01:04;100779.44;;;4.77;87.45
60715;BME280;46564;53.096;8.246;2023-01-30T09:06:06;100775.50;;;4.87;87.61
60715;BME280;46564;53.096;8.246;2023-01-30T09:11:09;100785.53;;;4.77;87.37
60715;BME280;46564;53.096;8.246;2023-01-30T09:16:17;100764.25;;;4.44;87.47
60715;BME280;46564;53.096;8.246;2023-01-30T09:21:28;100786.28;;;4.33;88.34
60715;BME280;46564;53.096;8.246;2023-01-30T09:26:33;100771.84;;;4.39;89.04
60715;BME280;46564;53.096;8.246;2023-01-30T09:31:39;100763.88;;;4.56;89.39
60715;BME280;46564;53.096;8.246;2023-01-30T09:36:41;100770.75;;;4.98;89.27
60715;BME280;46564;53.096;8.246;2023-01-30T09:47:02;100802.53;;;4.92;88.64
60715;BME280;46564;53.096;8.246;2023-01-30T09:57:57;100792.75;;;5.07;87.95
60715;BME280;46564;53.096;8.246;2023-01-30T10:03:35;100784.31;;;4.69;87.87
60715;BME280;46564;53.096;8.246;2023-01-30T10:09:17;100784.25;;;4.47;88.64
60715;BME280;46564;53.096;8.246;2023-01-30T10:14:45;100789.91;;;4.17;89.25
60715;BME280;46564;53.096;8.246;2023-01-30T10:25:28;100787.63;;;3.84;90.55
60715;BME280;46564;53.096;8.246;2023-01-30T10:30:33;100774.66;;;4.03;91.17
60715;BME280;46564;53.096;8.246;2023-01-30T10:35:54;100766.03;;;4.24;91.48
60715;BME280;46564;53.096;8.246;2023-01-30T10:52:05;100768.69;;;4.25;92.00
60715;BME280;46564;53.096;8.246;2023-01-30T11:03:02;100755.06;;;5.17;92.27
60715;BME280;46564;53.096;8.246;2023-01-30T11:08:27;100768.59;;;4.87;91.60
60715;BME280;46564;53.096;8.246;2023-01-30T11:13:42;100793.63;;;4.64;91.34
60715;BME280;46564;53.096;8.246;2023-01-30T11:18:57;100777.09;;;4.62;91.58
60715;BME280;46564;53.096;8.246;2023-01-30T11:24:41;100773.25;;;4.73;91.58
60715;BME280;46564;53.096;8.246;2023-01-30T11:36:06;100767.09;;;5.15;90.99
60715;BME280;46564;53.096;8.246;2023-01-30T11:42:00;100768.03;;;5.40;90.22
60715;BME280;46564;53.096;8.246;2023-01-30T11:47:40;100783.41;;;5.58;89.40
60715;BME280;46564;53.096;8.246;2023-01-30T11:53:32;100794.25;;;5.70;89.07
60715;BME280;46564;53.096;8.246;2023-01-30T11:59:03;100808.16;;;5.71;88.30
60715;BME280;46564;53.096;8.246;2023-01-30T12:04:15;100809.53;;;5.85;88.10
60715;BME280;46564;53.096;8.246;2023-01-30T12:09:34;100798.09;;;5.80;87.50
60715;BME280;46564;53.096;8.246;2023-01-30T12:15:04;100801.47;;;5.77;87.11
60715;BME280;46564;53.096;8.246;2023-01-30T12:20:48;100790.94;;;5.74;86.60
60715;BME280;46564;53.096;8.246;2023-01-30T12:26:01;100807.03;;;5.64;86.37
60715;BME280;46564;53.096;8.246;2023-01-30T12:53:01;100843.22;;;4.93;90.53
60715;BME280;46564;53.096;8.246;2023-01-30T12:58:24;100838.66;;;5.08;91.06
60715;BME280;46564;53.096;8.246;2023-01-30T13:04:05;100835.72;;;5.22;90.97
60715;BME280;46564;53.096;8.246;2023-01-30T13:09:57;100862.03;;;5.31;90.27
60715;BME280;46564;53.096;8.246;2023-01-30T13:21:45;100884.81;;;5.38;89.05
60715;BME280;46564;53.096;8.246;2023-01-30T13:27:03;100888.34;;;5.40;88.48
60715;BME280;46564;53.096;8.246;2023-01-30T13:37:39;100901.00;;;5.54;87.77
60715;BME280;46564;53.096;8.246;2023-01-30T13:43:08;100924.44;;;5.55;87.46
60715;BME280;46564;53.096;8.246;2023-01-30T14:05:21;100971.78;;;5.69;85.81
60715;BME280;46564;53.096;8.246;2023-01-30T14:10:48;100990.91;;;5.71;85.61
60715;BME280;46564;53.096;8.246;2023-01-30T14:16:00;101016.06;;;5.72;85.45
60715;BME280;46564;53.096;8.246;2023-01-30T14:31:49;101056.91;;;5.76;85.04
60715;BME280;46564;53.096;8.246;2023-01-30T14:36:52;101063.91;;;5.77;84.92
60715;BME280;46564;53.096;8.246;2023-01-30T14:42:20;101071.75;;;5.79;84.54
60715;BME280;46564;53.096;8.246;2023-01-30T14:47:36;101096.88;;;5.78;84.58
60715;BME280;46564;53.096;8.246;2023-01-30T14:52:54;101104.53;;;5.75;84.40
60715;BME280;46564;53.096;8.246;2023-01-30T14:58:02;101122.88;;;5.78;84.47
60715;BME280;46564;53.096;8.246;2023-01-30T15:03:09;101124.78;;;5.82;84.56
60715;BME280;46564;53.096;8.246;2023-01-30T15:08:24;101140.56;;;5.87;84.11
60715;BME280;46564;53.096;8.246;2023-01-30T15:14:03;101165.69;;;5.88;84.11
60715;BME280;46564;53.096;8.246;2023-01-30T15:37:35;101253.75;;;5.80;82.48
60715;BME280;46564;53.096;8.246;2023-01-30T15:53:12;101297.78;;;5.58;82.61
60715;BME280;46564;53.096;8.246;2023-01-30T15:58:17;101301.09;;;5.36;82.71
60715;BME280;46564;53.096;8.246;2023-01-30T16:03:31;101309.75;;;5.17;83.17
60715;BME280;46564;53.096;8.246;2023-01-30T16:09:25;101323.38;;;4.94;83.95
60715;BME280;46564;53.096;8.246;2023-01-30T16:20:52;101346.38;;;4.87;84.68
60715;BME280;46564;53.096;8.246;2023-01-30T16:26:48;101348.00;;;4.85;85.01
60715;BME280;46564;53.096;8.246;2023-01-30T16:32:16;101385.97;;;4.83;85.31
60715;BME280;46564;53.096;8.246;2023-01-30T16:37:28;101388.91;;;4.72;86.12
60715;BME280;46564;53.096;8.246;2023-01-30T16:42:31;101393.47;;;4.60;86.06
60715;BME280;46564;53.096;8.246;2023-01-30T16:47:33;101407.56;;;4.49;86.17
60715;BME280;46564;53.096;8.246;2023-01-30T16:52:37;101411.50;;;4.40;86.34
60715;BME280;46564;53.096;8.246;2023-01-30T16:57:50;101417.88;;;4.31;86.35
60715;BME280;46564;53.096;8.246;2023-01-30T17:03:00;101442.06;;;4.30;86.45
60715;BME280;46564;53.096;8.246;2023-01-30T17:13:36;101464.91;;;4.37;86.47
60715;BME280;46564;53.096;8.246;2023-01-30T17:18:38;101469.00;;;4.33;86.15
60715;BME280;46564;53.096;8.246;2023-01-30T17:23:58;101477.44;;;4.29;86.05
60715;BME280;46564;53.096;8.246;2023-01-30T17:29:01;101471.13;;;4.24;86.04
60715;BME280;46564;53.096;8.246;2023-01-30T17:34:02;101481.50;;;4.24;86.34
60715;BME280;46564;53.096;8.246;2023-01-30T17:39:12;101483.69;;;4.16;86.63
60715;BME280;46564;53.096;8.246;2023-01-30T17:44:14;101476.91;;;4.03;86.58
60715;BME280;46564;53.096;8.246;2023-01-30T17:49:18;101471.56;;;4.00;87.13
60715;BME280;46564;53.096;8.246;2023-01-30T17:54:20;101486.25;;;4.00;87.33
60715;BME280;46564;53.096;8.246;2023-01-30T17:59:22;101489.25;;;4.07;87.56
60715;BME280;46564;53.096;8.246;2023-01-30T18:04:24;101509.97;;;4.07;87.34
60715;BME280;46564;53.096;8.246;2023-01-30T18:09:25;101513.03;;;4.00;87.26
60715;BME280;46564;53.096;8.246;2023-01-30T18:14:27;101517.25;;;3.98;87.34
60715;BME280;46564;53.096;8.246;2023-01-30T18:19:28;101521.34;;;3.95;87.15
60715;BME280;46564;53.096;8.246;2023-01-30T18:24:31;101531.63;;;3.93;87.07
60715;BME280;46564;53.096;8.246;2023-01-30T18:29:33;101542.16;;;3.96;86.69
60715;BME280;46564;53.096;8.246;2023-01-30T18:34:35;101548.00;;;3.92;86.48
60715;BME280;46564;53.096;8.246;2023-01-30T18:39:38;101548.00;;;3.92;86.77
60715;BME280;46564;53.096;8.246;2023-01-30T18:44:39;101567.91;;;3.93;86.38
60715;BME280;46564;53.096;8.246;2023-01-30T18:49:41;101572.75;;;3.87;86.25
60715;BME280;46564;53.096;8.246;2023-01-30T18:54:42;101587.94;;;3.81;86.07
60715;BME280;46564;53.096;8.246;2023-01-30T18:59:44;101608.69;;;3.81;85.97
60715;BME280;46564;53.096;8.246;2023-01-30T19:04:45;101606.69;;;3.77;86.06
60715;BME280;46564;53.096;8.246;2023-01-30T19:09:47;101612.81;;;3.77;86.47
60715;BME280;46564;53.096;8.246;2023-01-30T19:14:49;101616.28;;;3.78;86.75
60715;BME280;46564;53.096;8.246;2023-01-30T19:19:50;101624.03;;;3.78;87.05
60715;BME280;46564;53.096;8.246;2023-01-30T19:24:52;101626.38;;;3.73;87.21
60715;BME280;46564;53.096;8.246;2023-01-30T19:29:53;101622.25;;;3.77;87.20
60715;BME280;46564;53.096;8.246;2023-01-30T19:34:55;101641.38;;;3.79;87.46
60715;BME280;46564;53.096;8.246;2023-01-30T19:39:56;101647.09;;;3.73;88.12
60715;BME280;46564;53.096;8.246;2023-01-30T19:44:58;101655.31;;;3.66;87.89
60715;BME280;46564;53.096;8.246;2023-01-30T19:50:00;101656.13;;;3.65;88.16
60715;BME280;46564;53.096;8.246;2023-01-30T19:55:03;101672.28;;;3.61;88.38
60715;BME280;46564;53.096;8.246;2023-01-30T20:00:06;101668.59;;;3.57;88.70
60715;BME280;46564;53.096;8.246;2023-01-30T20:05:08;101679.44;;;3.65;88.95
60715;BME280;46564;53.096;8.246;2023-01-30T20:10:10;101677.63;;;3.64;89.13
60715;BME280;46564;53.096;8.246;2023-01-30T20:15:11;101689.50;;;3.60;89.12
60715;BME280;46564;53.096;8.246;2023-01-30T20:20:13;101707.72;;;3.62;89.24
60715;BME280;46564;53.096;8.246;2023-01-30T20:25:14;101707.09;;;3.66;89.41
60715;BME280;46564;53.096;8.246;2023-01-30T20:30:16;101722.22;;;3.73;89.39
60715;BME280;46564;53.096;8.246;2023-01-30T20:35:20;101711.94;;;3.75;89.42
60715;BME280;46564;53.096;8.246;2023-01-30T20:40:21;101705.97;;;3.76;89.46
60715;BME280;46564;53.096;8.246;2023-01-30T20:45:23;101703.19;;;3.72;89.39
60715;BME280;46564;53.096;8.246;2023-01-30T20:50:25;101710.53;;;3.65;89.30
60715;BME280;46564;53.096;8.246;2023-01-30T20:55:28;101714.09;;;3.67;89.26
60715;BME280;46564;53.096;8.246;2023-01-30T21:00:29;101706.59;;;3.71;88.99
60715;BME280;46564;53.096;8.246;2023-01-30T21:05:31;101716.94;;;3.71;88.90
60715;BME280;46564;53.096;8.246;2023-01-30T21:10:33;101730.59;;;3.69;88.62
60715;BME280;46564;53.096;8.246;2023-01-30T21:15:35;101741.69;;;3.66;88.28
60715;BME280;46564;53.096;8.246;2023-01-30T21:20:37;101752.66;;;3.62;88.30
60715;BME280;46564;53.096;8.246;2023-01-30T21:25:39;101762.50;;;3.68;88.23
60715;BME280;46564;53.096;8.246;2023-01-30T21:30:41;101768.75;;;3.71;88.07
60715;BME280;46564;53.096;8.246;2023-01-30T21:35:43;101791.09;;;3.69;88.44
60715;BME280;46564;53.096;8.246;2023-01-30T21:40:49;101803.66;;;3.63;88.71
60715;BME280;46564;53.096;8.246;2023-01-30T21:46:13;101798.72;;;3.53;88.72
60715;BME280;46564;53.096;8.246;2023-01-30T21:51:16;101797.13;;;3.55;88.66
60715;BME280;46564;53.096;8.246;2023-01-30T21:56:19;101805.66;;;3.54;88.45
60715;BME280;46564;53.096;8.246;2023-01-30T22:01:21;101799.28;;;3.62;88.16
60715;BME280;46564;53.096;8.246;2023-01-30T22:06:23;101795.69;;;3.60;87.93
60715;BME280;46564;53.096;8.246;2023-01-30T22:11:26;101795.69;;;3.60;87.62
60715;BME280;46564;53.096;8.246;2023-01-30T22:16:28;101805.53;;;3.66;87.31
60715;BME280;46564;53.096;8.246;2023-01-30T22:21:33;101796.09;;;3.66;86.99
60715;BME280;46564;53.096;8.246;2023-01-30T22:26:36;101798.19;;;3.59;86.93
60715;BME280;46564;53.096;8.246;2023-01-30T22:31:38;101796.53;;;3.46;87.25
60715;BME280;46564;53.096;8.246;2023-01-30T22:36:48;101822.84;;;3.39;87.18
60715;BME280;46564;53.096;8.246;2023-01-30T22:42:07;101815.09;;;3.25;87.50
60715;BME280;46564;53.096;8.246;2023-01-30T22:47:37;101798.41;;;3.07;88.23
60715;BME280;46564;53.096;8.246;2023-01-30T22:53:09;101798.81;;;2.99;88.87
60715;BME280;46564;53.096;8.246;2023-01-30T22:59:05;101804.97;;;3.01;89.38
60715;BME280;46564;53.096;8.246;2023-01-30T23:04:20;101833.84;;;3.08;89.83
60715;BME280;46564;53.096;8.246;2023-01-30T23:09:22;101845.88;;;3.07;90.13
60715;BME280;46564;53.096;8.246;2023-01-30T23:14:24;101837.72;;;3.01;90.42
60715;BME280;46564;53.096;8.246;2023-01-30T23:19:25;101838.03;;;2.92;91.01
60715;BME280;46564;53.096;8.246;2023-01-30T23:24:27;101845.78;;;2.79;91.02
60715;BME280;46564;53.096;8.246;2023-01-30T23:29:32;101846.97;;;2.71;91.49
60715;BME280;46564;53.096;8.246;2023-01-30T23:34:44;101838.41;;;2.58;91.69
60715;BME280;46564;53.096;8.246;2023-01-30T23:39:48;101841.19;;;2.48;91.94
60715;BME280;46564;53.096;8.246;2023-01-30T23:45:10;101841.09;;;2.46;92.32
60715;BME280;46564;53.096;8.246;2023-01-30T23:50:15;101826.94;;;2.41;92.37
60715;BME280;46564;53.096;8.246;2023-01-30T23:55:18;101827.56;;;2.37;92.67
